Time;durP1;ratioP1;P1;durP2;ratioP2;P2;SDS_P1;SDS_P2;PMS_P1;PMS_P2;Temp;Humidity;BMP_temperature;BMP_pressure;BME280_temperature;BME280_humidity;BME280_pressure;Samples;Min_cycle;Max_cycle;Signal;HPM_P1;HPM_P2
2023/05/06 00:01:43;;;;;;;4.90;2.50;;;23.00;70.30;;;;;;5019112;28;20468;-64
2023/05/06 00:04:09;;;;;;;4.27;2.67;;;23.00;70.30;;;;;;5022308;28;20497;-65
2023/05/06 00:06:37;;;;;;;6.47;2.90;;;23.00;70.30;;;;;;5022398;28;20550;-68
2023/05/06 00:09:04;;;;;;;4.40;2.63;;;23.00;70.30;;;;;;5022118;28;21053;-64
2023/05/06 00:11:30;;;;;;;3.20;2.80;;;23.00;70.30;;;;;;5033106;28;20463;-67
2023/05/06 00:13:57;;;;;;;4.20;2.70;;;22.90;70.20;;;;;;5029501;28;20854;-64
2023/05/06 00:16:24;;;;;;;3.70;2.67;;;22.90;70.20;;;;;;5029541;28;21282;-64
2023/05/06 00:18:52;;;;;;;4.20;2.50;;;22.90;70.20;;;;;;5032113;28;20820;-66
2023/05/06 00:21:18;;;;;;;3.80;2.63;;;22.90;70.30;;;;;;5036815;28;20458;-65
2023/05/06 00:23:45;;;;;;;3.47;2.20;;;22.90;70.30;;;;;;5032805;28;20961;-64
2023/05/06 00:26:12;;;;;;;4.07;2.75;;;22.90;70.30;;;;;;5026305;28;20891;-66
2023/05/06 00:28:38;;;;;;;3.30;2.47;;;22.90;70.40;;;;;;5030270;28;20200;-65
2023/05/06 00:31:05;;;;;;;5.00;3.03;;;22.80;70.30;;;;;;5029849;28;20463;-65
2023/05/06 00:33:32;;;;;;;3.83;2.43;;;22.80;70.20;;;;;;5031542;28;21140;-66
2023/05/06 00:36:00;;;;;;;3.37;2.50;;;22.80;70.20;;;;;;5031719;28;20455;-65
2023/05/06 00:38:27;;;;;;;2.90;2.10;;;22.80;70.30;;;;;;5031572;28;20454;-64
2023/05/06 00:40:53;;;;;;;2.50;2.07;;;22.80;70.30;;;;;;5030184;28;20471;-64
2023/05/06 00:43:20;;;;;;;4.17;3.10;;;22.80;70.30;;;;;;5026249;28;20443;-64
2023/05/06 00:45:48;;;;;;;5.27;2.40;;;22.80;70.30;;;;;;5020764;28;20958;-66
2023/05/06 00:48:15;;;;;;;5.33;2.30;;;22.80;70.30;;;;;;5030939;28;20490;-68
2023/05/06 00:50:42;;;;;;;2.80;2.20;;;22.80;70.40;;;;;;5020934;28;20462;-64
2023/05/06 00:53:11;;;;;;;3.15;2.47;;;22.80;70.40;;;;;;5015035;28;20537;-69
2023/05/06 00:55:38;;;;;;;3.80;2.80;;;22.80;70.40;;;;;;5018823;28;20203;-66
2023/05/06 00:58:05;;;;;;;3.17;2.30;;;22.70;70.30;;;;;;5015738;28;20562;-66
2023/05/06 01:00:32;;;;;;;3.97;2.97;;;22.70;70.40;;;;;;5020025;28;20459;-69
2023/05/06 01:02:59;;;;;;;5.00;2.17;;;22.70;70.40;;;;;;5020347;28;20471;-69
2023/05/06 01:05:32;;;;;;;4.33;2.83;;;22.70;70.30;;;;;;5018055;28;20478;-65
2023/05/06 01:08:08;;;;;;;3.30;1.93;;;22.70;70.40;;;;;;5015617;28;20467;-66
2023/05/06 01:10:42;;;;;;;4.00;2.60;;;22.70;70.30;;;;;;5019201;28;20661;-66
2023/05/06 01:13:14;;;;;;;5.57;2.77;;;22.70;70.40;;;;;;5019278;28;20478;-64
2023/05/06 01:15:45;;;;;;;3.33;2.50;;;22.70;70.40;;;;;;5013185;28;20459;-66
2023/05/06 01:18:16;;;;;;;4.17;2.30;;;22.70;70.40;;;;;;5018526;28;20467;-64
2023/05/06 01:20:48;;;;;;;4.50;3.00;;;22.60;70.30;;;;;;5017641;28;21034;-66
2023/05/06 01:23:17;;;;;;;3.03;2.63;;;22.60;70.40;;;;;;5018363;28;20561;-69
2023/05/06 01:25:44;;;;;;;5.43;2.63;;;22.60;70.40;;;;;;5026180;28;20946;-64
2023/05/06 01:28:11;;;;;;;3.37;2.70;;;22.60;70.40;;;;;;5018634;28;20469;-64
2023/05/06 01:30:46;;;;;;;5.43;2.67;;;22.60;70.40;;;;;;5018182;28;20754;-66
2023/05/06 01:33:20;;;;;;;2.92;2.45;;;22.60;70.40;;;;;;5022879;28;20917;-64
2023/05/06 01:35:56;;;;;;;3.80;2.40;;;22.60;70.50;;;;;;5020288;28;20227;-67
2023/05/06 01:38:36;;;;;;;3.30;2.50;;;22.60;71.20;;;;;;5018360;28;20530;-64
2023/05/06 01:41:03;;;;;;;4.22;3.05;;;22.50;70.30;;;;;;5017305;28;20470;-68
2023/05/06 01:43:33;;;;;;;3.83;2.37;;;22.60;70.50;;;;;;5016480;28;20208;-66
2023/05/06 01:46:01;;;;;;;3.90;2.50;;;22.50;70.40;;;;;;5015632;28;20455;-64
2023/05/06 01:48:30;;;;;;;3.03;2.40;;;22.50;70.40;;;;;;5020719;28;20958;-65
2023/05/06 01:50:57;;;;;;;4.00;2.33;;;22.50;70.40;;;;;;5028434;28;20450;-67
2023/05/06 01:53:25;;;;;;;3.67;2.70;;;22.50;70.40;;;;;;5018956;28;20479;-64
2023/05/06 01:55:52;;;;;;;2.70;2.20;;;22.50;70.40;;;;;;5019267;28;20469;-64
2023/05/06 01:58:18;;;;;;;3.83;2.33;;;22.50;70.40;;;;;;5016601;28;20212;-64
2023/05/06 02:00:45;;;;;;;3.60;2.30;;;22.50;70.40;;;;;;5016272;28;21549;-69
2023/05/06 02:03:12;;;;;;;3.80;2.43;;;22.50;70.40;;;;;;5017760;28;20990;-64
2023/05/06 02:05:39;;;;;;;3.10;2.23;;;22.50;70.50;;;;;;5017941;28;20970;-64
2023/05/06 02:08:05;;;;;;;3.20;2.60;;;22.40;70.40;;;;;;5012356;28;20462;-66
2023/05/06 02:10:33;;;;;;;3.23;2.10;;;22.40;70.40;;;;;;5022391;28;20467;-66
2023/05/06 02:13:00;;;;;;;2.90;2.60;;;22.40;70.50;;;;;;5027353;28;20482;-66
2023/05/06 02:15:27;;;;;;;3.10;2.10;;;22.40;70.50;;;;;;5025090;28;20463;-64
2023/05/06 02:17:53;;;;;;;4.53;2.90;;;22.40;70.40;;;;;;5028604;28;20457;-66
2023/05/06 02:20:20;;;;;;;2.67;2.27;;;22.40;70.50;;;;;;5033134;28;20465;-65
2023/05/06 02:22:47;;;;;;;3.27;2.10;;;22.40;70.60;;;;;;5027038;28;20486;-64
2023/05/06 02:25:13;;;;;;;2.80;2.17;;;22.40;70.60;;;;;;5030768;28;20488;-66
2023/05/06 02:27:43;;;;;;;2.53;1.97;;;22.40;70.60;;;;;;5020016;28;20471;-66
2023/05/06 02:30:11;;;;;;;3.73;2.23;;;22.30;70.40;;;;;;5026908;28;20465;-65
2023/05/06 02:32:38;;;;;;;3.40;2.13;;;22.30;70.40;;;;;;5027393;28;20466;-65
2023/05/06 02:35:05;;;;;;;3.23;2.40;;;22.30;70.50;;;;;;5029684;28;20478;-66
2023/05/06 02:37:32;;;;;;;2.80;2.38;;;22.30;70.50;;;;;;5021217;28;20466;-65
2023/05/06 02:39:59;;;;;;;2.50;2.10;;;22.30;70.60;;;;;;5028567;28;20196;-66
2023/05/06 02:42:25;;;;;;;2.07;1.87;;;22.30;70.60;;;;;;5022936;28;20460;-68
2023/05/06 02:44:53;;;;;;;2.97;2.00;;;22.30;70.60;;;;;;5025894;28;20528;-65
2023/05/06 02:47:20;;;;;;;2.85;2.00;;;22.30;70.60;;;;;;5017562;28;20262;-65
2023/05/06 02:49:47;;;;;;;4.70;2.43;;;22.30;70.60;;;;;;5027984;28;20207;-64
2023/05/06 02:52:13;;;;;;;2.47;2.10;;;22.30;70.60;;;;;;5023055;28;20463;-65
2023/05/06 02:54:40;;;;;;;3.40;2.35;;;22.30;71.30;;;;;;5018123;28;20474;-65
2023/05/06 02:57:06;;;;;;;4.13;2.67;;;22.20;70.50;;;;;;5030260;28;20730;-64
2023/05/06 02:59:34;;;;;;;3.90;2.33;;;22.20;70.60;;;;;;5019795;28;20474;-68
2023/05/06 03:02:02;;;;;;;2.30;2.10;;;22.20;70.60;;;;;;5013728;28;20455;-65
2023/05/06 03:04:29;;;;;;;2.80;2.22;;;22.20;70.60;;;;;;5020997;28;20463;-64
2023/05/06 03:06:56;;;;;;;3.87;2.27;;;22.20;71.40;;;;;;5017773;28;20223;-65
2023/05/06 03:09:23;;;;;;;2.90;2.60;;;22.20;70.70;;;;;;5012434;28;20451;-65
2023/05/06 03:11:49;;;;;;;3.42;1.90;;;22.20;70.70;;;;;;5018398;28;20477;-68
2023/05/06 03:14:16;;;;;;;3.33;2.10;;;22.20;70.60;;;;;;5016648;28;20333;-65
2023/05/06 03:16:43;;;;;;;3.00;2.27;;;22.20;70.70;;;;;;5008188;28;20197;-68
2023/05/06 03:19:11;;;;;;;2.33;1.80;;;22.20;70.60;;;;;;5019982;28;20467;-65
2023/05/06 03:21:38;;;;;;;2.58;2.28;;;22.20;70.70;;;;;;5031291;28;20224;-63
2023/05/06 03:24:05;;;;;;;3.70;2.33;;;22.20;70.70;;;;;;5016809;28;20197;-64
2023/05/06 03:26:32;;;;;;;3.20;2.43;;;22.20;70.70;;;;;;5024730;28;20231;-65
2023/05/06 03:28:58;;;;;;;2.78;2.30;;;22.20;70.70;;;;;;5021519;28;20447;-66
2023/05/06 03:31:25;;;;;;;2.83;2.23;;;22.10;70.60;;;;;;5017711;28;20274;-64
2023/05/06 03:33:52;;;;;;;3.60;2.30;;;22.10;70.70;;;;;;5023087;28;20562;-63
2023/05/06 03:36:22;;;;;;;2.13;1.60;;;22.10;70.70;;;;;;5021762;28;20869;-65
2023/05/06 03:38:49;;;;;;;2.30;2.10;;;22.10;70.60;;;;;;5017499;28;20463;-64
2023/05/06 03:41:16;;;;;;;3.75;2.17;;;22.10;70.70;;;;;;5021067;28;20458;-69
2023/05/06 03:43:43;;;;;;;3.25;2.00;;;22.10;70.70;;;;;;5021750;28;20207;-64
2023/05/06 03:46:10;;;;;;;3.58;2.45;;;22.10;70.70;;;;;;5011080;28;21682;-68
2023/05/06 03:48:37;;;;;;;2.83;1.80;;;22.10;70.70;;;;;;5017453;28;20204;-64
2023/05/06 03:51:03;;;;;;;3.05;1.90;;;22.00;70.60;;;;;;5023754;28;20219;-63
2023/05/06 03:53:31;;;;;;;3.28;2.00;;;22.10;70.80;;;;;;5017249;28;20270;-66
2023/05/06 03:56:00;;;;;;;2.30;1.90;;;22.10;70.80;;;;;;5021415;28;20203;-64
2023/05/06 03:58:27;;;;;;;2.13;1.85;;;22.10;70.70;;;;;;5029825;28;20266;-67
2023/05/06 04:00:53;;;;;;;3.65;2.40;;;22.00;70.70;;;;;;5017143;28;20204;-64
2023/05/06 04:03:20;;;;;;;3.40;1.63;;;22.00;70.70;;;;;;5028686;28;20216;-64
2023/05/06 04:05:48;;;;;;;3.22;1.75;;;22.00;70.70;;;;;;5018001;28;20472;-67
2023/05/06 04:08:15;;;;;;;2.53;1.70;;;22.00;70.80;;;;;;5017511;28;20201;-65
2023/05/06 04:10:44;;;;;;;2.97;2.05;;;22.00;70.80;;;;;;5028469;28;20200;-64
2023/05/06 04:13:10;;;;;;;2.80;2.20;;;22.00;70.80;;;;;;5027295;28;20196;-65
2023/05/06 04:15:37;;;;;;;2.78;1.55;;;22.00;70.80;;;;;;5021872;28;20362;-65
2023/05/06 04:18:06;;;;;;;3.60;2.00;;;22.00;70.80;;;;;;5028843;28;20200;-63
2023/05/06 04:20:33;;;;;;;3.20;1.98;;;22.00;70.90;;;;;;5036293;28;20196;-63
2023/05/06 04:22:59;;;;;;;2.22;1.70;;;22.00;70.90;;;;;;5022320;28;20224;-65
2023/05/06 04:25:26;;;;;;;2.10;1.80;;;22.00;70.90;;;;;;5029024;28;20208;-64
2023/05/06 04:27:55;;;;;;;2.05;1.70;;;22.00;71.00;;;;;;5030850;28;20231;-64
2023/05/06 04:30:21;;;;;;;4.45;2.03;;;22.00;70.90;;;;;;5022750;28;20328;-66
2023/05/06 04:32:48;;;;;;;3.20;1.95;;;21.90;70.90;;;;;;5031633;28;20192;-64
2023/05/06 04:35:15;;;;;;;2.53;2.08;;;21.90;70.90;;;;;;5037125;28;20227;-64
2023/05/06 04:37:42;;;;;;;2.63;2.43;;;21.90;70.90;;;;;;5033622;28;20200;-65
2023/05/06 04:40:10;;;;;;;3.45;1.65;;;21.90;70.90;;;;;;5029638;28;20573;-64
2023/05/06 04:42:37;;;;;;;4.20;2.50;;;21.90;70.90;;;;;;5018980;28;20211;-65
2023/05/06 04:45:06;;;;;;;2.63;1.92;;;21.90;70.90;;;;;;5018348;28;20254;-64
2023/05/06 04:47:33;;;;;;;2.63;1.97;;;21.90;71.00;;;;;;5028306;28;20205;-65
2023/05/06 04:50:00;;;;;;;2.45;2.03;;;21.90;70.90;;;;;;5021076;28;20463;-67
2023/05/06 04:52:26;;;;;;;2.42;1.70;;;21.90;71.00;;;;;;5022155;28;20590;-65
2023/05/06 04:54:53;;;;;;;2.45;2.20;;;21.90;71.00;;;;;;5015897;28;20302;-68
2023/05/06 04:57:20;;;;;;;3.28;2.10;;;21.90;70.90;;;;;;5022230;28;20290;-64
2023/05/06 04:59:46;;;;;;;3.55;1.92;;;21.90;70.90;;;;;;5017891;28;20200;-64
2023/05/06 05:02:14;;;;;;;2.75;1.80;;;21.90;71.00;;;;;;5019021;28;20322;-66
2023/05/06 05:04:41;;;;;;;2.03;1.60;;;21.80;70.90;;;;;;5020067;28;20763;-66
2023/05/06 05:07:08;;;;;;;2.53;1.95;;;21.80;70.90;;;;;;5030052;28;20208;-69
2023/05/06 05:09:35;;;;;;;3.47;2.25;;;21.80;71.10;;;;;;5028417;28;20210;-65
2023/05/06 05:12:02;;;;;;;2.85;2.55;;;21.80;70.90;;;;;;5022627;28;21501;-65
2023/05/06 05:14:28;;;;;;;2.10;1.90;;;21.80;70.70;;;;;;5018561;28;20243;-64
2023/05/06 05:16:55;;;;;;;4.38;2.08;;;21.80;70.90;;;;;;5017327;28;20211;-65
2023/05/06 05:19:23;;;;;;;2.25;1.60;;;21.80;70.90;;;;;;5018122;28;20207;-66
2023/05/06 05:21:50;;;;;;;2.38;2.17;;;21.80;70.80;;;;;;5027235;28;20588;-68
2023/05/06 05:24:16;;;;;;;2.72;1.92;;;21.80;70.80;;;;;;5019068;28;20216;-65
2023/05/06 05:26:43;;;;;;;2.13;1.80;;;21.80;70.70;;;;;;5019826;28;20203;-64
2023/05/06 05:29:10;;;;;;;2.50;1.60;;;21.80;70.70;;;;;;5016785;28;20455;-67
2023/05/06 05:31:36;;;;;;;2.00;1.75;;;21.90;70.70;;;;;;5017155;28;20465;-66
2023/05/06 05:34:03;;;;;;;2.30;1.97;;;21.90;70.70;;;;;;5023568;28;20278;-64
2023/05/06 05:36:31;;;;;;;1.75;1.38;;;21.90;70.70;;;;;;5028278;28;20513;-65
2023/05/06 05:38:58;;;;;;;1.80;1.60;;;21.90;70.70;;;;;;5023046;28;20231;-65
2023/05/06 05:41:25;;;;;;;3.23;1.60;;;22.00;70.80;;;;;;5017314;28;20196;-64
2023/05/06 05:43:52;;;;;;;2.03;1.60;;;22.00;70.80;;;;;;5020105;28;21713;-69
2023/05/06 05:46:18;;;;;;;2.65;1.85;;;22.00;70.80;;;;;;5017532;28;20482;-64
2023/05/06 05:48:45;;;;;;;2.58;1.40;;;22.00;70.80;;;;;;5019147;28;20212;-64
2023/05/06 05:51:12;;;;;;;2.00;1.70;;;22.00;70.80;;;;;;5019685;28;20207;-68
2023/05/06 05:53:40;;;;;;;2.43;2.20;;;22.00;70.80;;;;;;5021304;28;20891;-64
2023/05/06 05:56:07;;;;;;;1.90;1.42;;;22.00;70.80;;;;;;5018924;28;20483;-67
2023/05/06 05:58:34;;;;;;;2.80;1.87;;;22.00;70.80;;;;;;5018225;28;20210;-64
2023/05/06 06:01:00;;;;;;;2.20;1.90;;;22.00;71.50;;;;;;5017087;28;20516;-64
2023/05/06 06:03:27;;;;;;;2.83;1.80;;;22.00;70.80;;;;;;5016698;28;20461;-64
2023/05/06 06:05:54;;;;;;;2.03;1.50;;;22.00;70.70;;;;;;5015423;28;20825;-65
2023/05/06 06:08:21;;;;;;;2.77;2.40;;;22.00;70.80;;;;;;5024733;28;20224;-64
2023/05/06 06:10:49;;;;;;;1.50;1.40;;;22.10;70.80;;;;;;5033188;28;20462;-66
2023/05/06 06:13:16;;;;;;;2.60;1.80;;;22.10;70.80;;;;;;5024791;28;20895;-66
2023/05/06 06:15:43;;;;;;;2.13;1.50;;;22.10;70.90;;;;;;5024209;28;20489;-64
2023/05/06 06:18:09;;;;;;;2.25;1.45;;;22.10;70.80;;;;;;5032729;28;20517;-65
2023/05/06 06:20:37;;;;;;;2.77;1.47;;;22.10;70.80;;;;;;5034705;28;20204;-67
2023/05/06 06:23:03;;;;;;;2.80;1.83;;;22.20;70.80;;;;;;5033034;28;20486;-64
2023/05/06 06:25:30;;;;;;;2.33;2.13;;;22.20;70.90;;;;;;5022836;28;20870;-67
2023/05/06 06:27:58;;;;;;;1.70;1.50;;;22.20;70.80;;;;;;5036486;28;20535;-64
2023/05/06 06:30:25;;;;;;;1.30;1.10;;;22.20;70.80;;;;;;5025291;28;20601;-64
2023/05/06 06:32:53;;;;;;;1.90;1.53;;;22.20;70.70;;;;;;5028644;28;20609;-66
2023/05/06 06:35:20;;;;;;;1.40;1.30;;;22.20;70.70;;;;;;5027864;28;20489;-66
2023/05/06 06:37:47;;;;;;;2.00;1.70;;;22.20;70.80;;;;;;5032717;28;20443;-66
2023/05/06 06:40:14;;;;;;;2.10;1.37;;;22.20;70.70;;;;;;5021165;28;20502;-64
2023/05/06 06:42:41;;;;;;;1.90;1.80;;;22.20;70.60;;;;;;5026344;28;20463;-64
2023/05/06 06:45:10;;;;;;;1.93;1.63;;;22.20;70.70;;;;;;5017160;28;20472;-64
2023/05/06 06:47:37;;;;;;;2.13;1.60;;;22.20;70.70;;;;;;5015784;28;20466;-69
2023/05/06 06:50:04;;;;;;;2.37;1.70;;;22.20;70.60;;;;;;5017309;28;20455;-64
2023/05/06 06:52:31;;;;;;;3.00;1.80;;;22.20;70.70;;;;;;5018023;28;20455;-66
2023/05/06 06:54:57;;;;;;;1.80;1.60;;;22.20;70.60;;;;;;5018731;28;20960;-67
2023/05/06 06:57:24;;;;;;;1.87;1.60;;;22.20;70.60;;;;;;5022476;28;20464;-68
2023/05/06 06:59:52;;;;;;;1.93;1.70;;;22.20;70.60;;;;;;5019285;28;21049;-66
2023/05/06 07:02:21;;;;;;;1.50;1.20;;;22.20;70.60;;;;;;5021591;28;20467;-65
2023/05/06 07:04:48;;;;;;;1.80;1.50;;;22.20;70.60;;;;;;5019187;28;20478;-64
2023/05/06 07:07:17;;;;;;;1.60;1.40;;;22.20;70.60;;;;;;5024825;28;20462;-66
2023/05/06 07:09:44;;;;;;;2.10;1.53;;;22.20;70.70;;;;;;5020887;28;20465;-64
2023/05/06 07:12:11;;;;;;;2.57;1.37;;;22.20;70.70;;;;;;5019542;28;20582;-68
2023/05/06 07:14:38;;;;;;;4.00;1.63;;;;;;;;;;5020015;28;20474;-69
2023/05/06 07:17:04;;;;;;;2.03;1.70;;;22.20;70.30;;;;;;5016644;28;20623;-65
2023/05/06 07:19:33;;;;;;;2.60;1.50;;;22.20;70.60;;;;;;5020105;28;20469;-69
2023/05/06 07:22:01;;;;;;;1.87;1.40;;;22.20;70.90;;;;;;5021358;28;20482;-67
2023/05/06 07:24:28;;;;;;;3.17;1.40;;;22.30;71.40;;;;;;5015711;28;20502;-61
2023/05/06 07:26:55;;;;;;;2.53;1.50;;;22.30;71.40;;;;;;5019859;28;20467;-67
2023/05/06 07:29:22;;;;;;;3.50;1.70;;;22.30;71.30;;;;;;5019503;28;20493;-62
2023/05/06 07:31:48;;;;;;;3.17;1.93;;;22.30;71.30;;;;;;5013937;28;20516;-65
2023/05/06 07:34:15;;;;;;;1.73;1.50;;;22.30;71.40;;;;;;5019874;28;20467;-62
2023/05/06 07:36:44;;;;;;;1.70;1.13;;;22.30;71.50;;;;;;5020807;28;20500;-61
2023/05/06 07:39:11;;;;;;;2.10;1.37;;;22.30;71.50;;;;;;5017256;28;20470;-66
2023/05/06 07:41:37;;;;;;;1.87;1.30;;;22.20;71.40;;;;;;5020404;28;21117;-62
2023/05/06 07:44:05;;;;;;;5.80;1.60;;;22.30;72.10;;;;;;5017972;28;21049;-59
2023/05/06 07:46:32;;;;;;;1.73;1.60;;;22.30;71.50;;;;;;5018499;28;20551;-61
2023/05/06 07:48:58;;;;;;;1.80;1.70;;;22.30;71.50;;;;;;5016806;28;20463;-67
2023/05/06 07:51:25;;;;;;;1.90;1.47;;;22.30;71.50;;;;;;5028901;28;20878;-63
2023/05/06 07:53:53;;;;;;;2.87;2.57;;;22.30;71.40;;;;;;5018515;28;20482;-60
2023/05/06 07:56:20;;;;;;;2.30;1.60;;;22.30;71.40;;;;;;5022819;28;20886;-60
2023/05/06 07:58:48;;;;;;;1.60;1.30;;;22.30;71.40;;;;;;5024863;28;20467;-64
2023/05/06 08:01:14;;;;;;;2.00;1.77;;;22.30;71.40;;;;;;5021457;28;20973;-61
2023/05/06 08:03:41;;;;;;;2.00;1.10;;;22.30;71.40;;;;;;5013329;28;20524;-63
2023/05/06 08:06:08;;;;;;;2.30;1.87;;;22.30;71.40;;;;;;5028088;28;20517;-61
2023/05/06 08:08:35;;;;;;;4.03;3.73;;;22.30;71.90;;;;;;5029576;28;20493;-60
2023/05/06 08:11:03;;;;;;;2.87;2.57;;;22.30;73.00;;;;;;5029640;28;20466;-62
2023/05/06 08:13:32;;;;;;;2.70;2.47;;;22.30;72.60;;;;;;5030189;28;20536;-61
2023/05/06 08:16:01;;;;;;;1.97;1.77;;;22.30;72.70;;;;;;5030354;28;20537;-60
2023/05/06 08:18:27;;;;;;;2.30;2.10;;;22.30;72.50;;;;;;5023804;28;21491;-64
2023/05/06 08:20:54;;;;;;;3.27;1.67;;;22.40;72.70;;;;;;5025171;28;20474;-62
2023/05/06 08:23:21;;;;;;;1.90;1.70;;;22.40;72.70;;;;;;5027779;28;20889;-60
2023/05/06 08:25:48;;;;;;;2.80;2.10;;;22.40;72.60;;;;;;5030194;28;20541;-62
2023/05/06 08:28:16;;;;;;;2.90;1.87;;;22.40;72.60;;;;;;5027546;28;20505;-63
2023/05/06 08:30:44;;;;;;;3.60;1.87;;;22.40;72.50;;;;;;5022721;28;20462;-60
2023/05/06 08:33:11;;;;;;;3.07;1.70;;;22.40;72.40;;;;;;5016607;28;20459;-60
2023/05/06 08:35:38;;;;;;;2.07;1.50;;;22.40;72.10;;;;;;5029614;28;20536;-61
2023/05/06 08:38:04;;;;;;;1.50;1.40;;;22.40;71.40;;;;;;5029702;28;20466;-63
2023/05/06 08:40:32;;;;;;;1.60;1.27;;;22.40;71.20;;;;;;5027334;28;20874;-63
2023/05/06 08:42:59;;;;;;;1.73;1.50;;;22.40;70.70;;;;;;5029981;28;20458;-61
2023/05/06 08:45:27;;;;;;;2.27;1.73;;;22.40;70.50;;;;;;5029094;28;20466;-61
2023/05/06 08:47:54;;;;;;;1.70;1.37;;;22.40;70.50;;;;;;5023371;28;22966;-60
2023/05/06 08:50:21;;;;;;;2.90;1.57;;;22.40;70.40;;;;;;5019008;28;20835;-61
2023/05/06 08:52:48;;;;;;;1.50;1.40;;;22.40;70.30;;;;;;4996528;28;20467;-63
2023/05/06 08:55:16;;;;;;;1.60;1.50;;;22.40;70.40;;;;;;4997107;28;20478;-64
2023/05/06 08:57:45;;;;;;;1.47;1.20;;;22.40;70.40;;;;;;4992940;28;20478;-61
2023/05/06 09:00:13;;;;;;;2.03;1.70;;;22.40;70.50;;;;;;5003261;28;20467;-63
2023/05/06 09:02:42;;;;;;;1.93;1.57;;;22.40;70.40;;;;;;5015727;28;21014;-66
2023/05/06 09:05:10;;;;;;;4.10;1.73;;;22.50;70.70;;;;;;5017386;28;20465;-60
2023/05/06 09:07:36;;;;;;;3.50;1.50;;;22.50;70.90;;;;;;5030525;28;20497;-63
2023/05/06 09:10:06;;;;;;;12.27;3.30;;;22.50;71.70;;;;;;5023810;28;20455;-61
2023/05/06 09:12:36;;;;;;;10.80;4.63;;;22.50;71.80;;;;;;5026418;28;20546;-66
2023/05/06 09:15:03;;;;;;;6.73;3.30;;;22.50;71.80;;;;;;5025563;28;20844;-66
2023/05/06 09:17:31;;;;;;;9.00;7.00;;;22.50;71.90;;;;;;5020475;28;20467;-62
2023/05/06 09:19:59;;;;;;;7.30;6.60;;;22.40;72.20;;;;;;5020952;28;20463;-70
2023/05/06 09:22:28;;;;;;;11.60;9.77;;;22.40;73.00;;;;;;5020525;28;20474;-67
2023/05/06 09:24:56;;;;;;;7.90;7.10;;;22.30;72.50;;;;;;5019003;28;20560;-62
2023/05/06 09:27:24;;;;;;;8.80;6.37;;;22.30;72.90;;;;;;5021507;28;20540;-63
2023/05/06 09:30:02;;;;;;;7.43;5.53;;;22.40;73.50;;;;;;5018374;28;20459;-65
2023/05/06 09:32:28;;;;;;;6.30;4.73;;;22.50;72.80;;;;;;5015914;28;20463;-63
2023/05/06 09:34:56;;;;;;;8.63;6.10;;;22.50;72.80;;;;;;5025315;28;20454;-62
2023/05/06 09:37:25;;;;;;;7.60;6.50;;;22.40;72.70;;;;;;5014726;28;20501;-66
2023/05/06 09:39:54;;;;;;;4.37;3.97;;;22.40;72.70;;;;;;5019146;28;20883;-65
2023/05/06 09:42:23;;;;;;;6.10;5.50;;;22.40;72.50;;;;;;5018166;28;23014;-66
2023/05/06 09:44:51;;;;;;;4.27;3.87;;;22.50;72.70;;;;;;5017363;28;20459;-63
2023/05/06 09:47:18;;;;;;;4.53;4.10;;;22.50;72.90;;;;;;5018354;28;20470;-71
2023/05/06 09:49:45;;;;;;;8.90;4.60;;;22.40;72.60;;;;;;5017736;28;20459;-67
2023/05/06 09:52:12;;;;;;;4.67;4.23;;;22.40;72.70;;;;;;5020126;28;20505;-66
2023/05/06 09:54:40;;;;;;;5.27;3.23;;;22.50;72.70;;;;;;5018672;28;20463;-67
2023/05/06 09:57:09;;;;;;;6.13;4.40;;;22.50;72.70;;;;;;5024370;28;20495;-71
2023/05/06 09:59:36;;;;;;;8.23;4.40;;;22.50;72.80;;;;;;5016332;28;21032;-70
2023/05/06 10:02:05;;;;;;;4.80;3.93;;;22.50;72.50;;;;;;5018920;28;20877;-66
2023/05/06 10:04:35;;;;;;;5.97;5.00;;;22.50;72.50;;;;;;5018043;28;20459;-68
2023/05/06 10:07:03;;;;;;;5.33;4.73;;;22.50;72.10;;;;;;5017850;28;20467;-65
2023/05/06 10:09:31;;;;;;;5.00;4.47;;;22.50;72.10;;;;;;5018132;28;20466;-65
2023/05/06 10:12:00;;;;;;;8.47;5.43;;;22.50;72.00;;;;;;5025057;28;20585;-64
2023/05/06 10:14:26;;;;;;;5.50;4.50;;;22.50;71.90;;;;;;5028164;28;20465;-63
2023/05/06 10:16:54;;;;;;;3.80;3.27;;;22.50;71.70;;;;;;5026064;28;20537;-63
2023/05/06 10:19:24;;;;;;;6.83;4.00;;;22.50;71.50;;;;;;5025184;28;20466;-66
2023/05/06 10:21:57;;;;;;;5.20;3.70;;;22.50;71.30;;;;;;5031320;28;20583;-65
2023/05/06 10:24:28;;;;;;;4.53;3.50;;;22.50;70.90;;;;;;5023869;28;20447;-69
2023/05/06 10:26:56;;;;;;;4.90;3.13;;;22.50;70.90;;;;;;5028018;28;20471;-68
2023/05/06 10:29:25;;;;;;;4.20;3.70;;;22.50;70.90;;;;;;5030654;28;20868;-68
2023/05/06 10:31:54;;;;;;;3.70;2.90;;;22.50;70.90;;;;;;5028388;28;20550;-63
2023/05/06 10:34:22;;;;;;;2.80;2.60;;;22.60;71.00;;;;;;5035460;28;20469;-64
2023/05/06 10:36:52;;;;;;;3.10;2.60;;;22.60;71.00;;;;;;5028071;28;20470;-65
2023/05/06 10:39:20;;;;;;;5.10;2.57;;;22.60;71.00;;;;;;5020618;28;20458;-63
2023/05/06 10:41:48;;;;;;;3.00;2.33;;;22.70;71.10;;;;;;5029006;28;20452;-68
2023/05/06 10:44:15;;;;;;;3.13;2.83;;;22.70;70.90;;;;;;5026799;28;20449;-71
2023/05/06 10:47:00;;;;;;;3.80;3.03;;;22.70;70.50;;;;;;5028831;28;20463;-65
2023/05/06 10:49:27;;;;;;;2.73;2.50;;;22.70;70.50;;;;;;5026503;28;20989;-68
2023/05/06 10:52:12;;;;;;;2.50;2.30;;;22.70;70.30;;;;;;5024560;28;20487;-67
2023/05/06 10:54:48;;;;;;;2.83;2.63;;;22.80;70.30;;;;;;5027250;28;20878;-66
2023/05/06 10:57:15;;;;;;;3.63;2.93;;;22.80;70.30;;;;;;5016561;28;20584;-68
2023/05/06 10:59:46;;;;;;;3.20;2.90;;;22.80;70.30;;;;;;5016109;28;20454;-67
2023/05/06 11:02:17;;;;;;;3.70;3.33;;;22.80;70.10;;;;;;5017163;28;20466;-68
2023/05/06 11:04:50;;;;;;;2.53;2.30;;;22.80;69.40;;;;;;5018690;28;20819;-65
2023/05/06 11:07:22;;;;;;;2.40;2.20;;;22.80;69.70;;;;;;5017946;28;20489;-65
2023/05/06 11:09:57;;;;;;;3.93;2.70;;;22.80;69.40;;;;;;5017429;28;20827;-63
2023/05/06 11:12:44;;;;;;;3.13;2.50;;;22.90;69.60;;;;;;5019117;28;20478;-65
2023/05/06 11:15:25;;;;;;;3.17;2.40;;;22.90;69.30;;;;;;5017616;28;20458;-64
2023/05/06 11:17:55;;;;;;;3.00;2.70;;;22.90;69.20;;;;;;5027482;28;20470;-67
2023/05/06 11:20:23;;;;;;;3.03;2.27;;;22.90;68.90;;;;;;5022106;28;20866;-60
2023/05/06 11:22:50;;;;;;;2.53;2.13;;;22.90;68.80;;;;;;5026954;28;20490;-70
2023/05/06 11:25:38;;;;;;;3.77;2.20;;;22.90;68.80;;;;;;5018218;28;20449;-81
2023/05/06 11:28:07;;;;;;;2.47;2.27;;;23.00;68.60;;;;;;5015279;28;21009;-70
2023/05/06 11:30:34;;;;;;;3.93;2.00;;;23.00;68.70;;;;;;5023692;28;20465;-76
2023/05/06 11:33:04;;;;;;;5.57;2.50;;;23.00;68.20;;;;;;5024657;28;20471;-77
2023/05/06 11:35:35;;;;;;;7.10;3.40;;;23.00;68.40;;;;;;5023261;28;20490;-70
2023/05/06 11:38:02;;;;;;;4.13;2.70;;;23.00;67.40;;;;;;5022680;28;20498;-55
2023/05/06 11:40:29;;;;;;;5.40;2.07;;;23.00;67.60;;;;;;5021811;28;20453;-58
2023/05/06 11:42:56;;;;;;;5.10;2.60;;;23.00;67.80;;;;;;5020420;28;20831;-62
2023/05/06 11:45:22;;;;;;;2.00;1.80;;;23.00;67.90;;;;;;5024648;28;20463;-60
2023/05/06 11:47:49;;;;;;;4.20;1.90;;;23.10;68.20;;;;;;5019974;28;20470;-68
2023/05/06 11:50:22;;;;;;;1.83;1.33;;;23.10;68.30;;;;;;5023018;28;20458;-67
2023/05/06 11:52:48;;;;;;;1.90;1.80;;;23.10;68.30;;;;;;5022249;28;20465;-60
2023/05/06 11:55:15;;;;;;;2.00;1.60;;;23.10;68.50;;;;;;5028898;28;20866;-53
2023/05/06 11:57:45;;;;;;;2.37;1.53;;;23.10;68.50;;;;;;5025613;28;20486;-60
2023/05/06 12:00:13;;;;;;;3.30;1.70;;;23.10;68.70;;;;;;5029212;28;20459;-68
2023/05/06 12:02:40;;;;;;;1.97;1.70;;;23.20;68.90;;;;;;5028292;28;20458;-68
2023/05/06 12:05:09;;;;;;;2.90;1.57;;;23.10;69.60;;;;;;5025178;28;20459;-56
2023/05/06 12:07:37;;;;;;;2.50;1.90;;;23.10;69.70;;;;;;5025313;28;20811;-62
2023/05/06 12:10:05;;;;;;;1.73;1.40;;;23.10;69.70;;;;;;5031679;28;21036;-58
2023/05/06 12:12:32;;;;;;;2.37;1.53;;;23.10;69.70;;;;;;5022704;28;20962;-58
2023/05/06 12:14:59;;;;;;;3.83;1.70;;;23.10;69.70;;;;;;5032259;28;20465;-59
2023/05/06 12:17:26;;;;;;;1.67;1.40;;;23.10;69.80;;;;;;5026721;28;20889;-61
2023/05/06 12:19:52;;;;;;;3.63;2.07;;;23.10;69.80;;;;;;5027706;28;20466;-52
2023/05/06 12:22:20;;;;;;;1.63;1.53;;;23.10;69.80;;;;;;5029314;28;20478;-49
2023/05/06 12:24:48;;;;;;;1.73;1.63;;;23.10;69.80;;;;;;5027974;28;20826;-55
2023/05/06 12:27:29;;;;;;;2.00;1.80;;;23.10;70.00;;;;;;5019075;28;20970;-53
2023/05/06 12:29:55;;;;;;;1.53;1.27;;;23.10;69.70;;;;;;5035988;28;20819;-55
2023/05/06 12:32:22;;;;;;;1.60;1.50;;;23.20;70.00;;;;;;5030264;28;20463;-56
2023/05/06 12:34:49;;;;;;;1.50;1.40;;;23.20;69.90;;;;;;5028586;28;20454;-60
2023/05/06 12:37:24;;;;;;;3.43;1.80;;;23.20;69.80;;;;;;5031646;28;20593;-58
2023/05/06 12:39:53;;;;;;;1.77;1.17;;;23.20;69.80;;;;;;5021793;28;20463;-62
2023/05/06 12:42:20;;;;;;;2.03;1.27;;;23.10;69.90;;;;;;5036917;28;20458;-67
2023/05/06 12:44:47;;;;;;;1.60;1.50;;;23.10;70.70;;;;;;5029458;28;20542;-68
2023/05/06 12:47:20;;;;;;;1.60;1.30;;;23.10;70.00;;;;;;5026662;28;20858;-63
2023/05/06 12:49:48;;;;;;;3.70;1.80;;;23.20;70.10;;;;;;5029926;28;20470;-61
2023/05/06 12:52:15;;;;;;;2.23;1.97;;;23.20;69.60;;;;;;5029676;28;20894;-57